Peleus — V2FV2 — position and weather

sailwx.info

Track history (hours):
 
Tides and Currents Weather Stations Pressure Air Temp Water Temp Dewpoint Dewpoint Depression Visibility Wind Speed Wind Dir Waves Ship Positions

Peleus

Last reported at 2017-May-26 11:00 UTC. Time now 2017-May-26 16:45 UTC.
Position N 51°53' E 004°16'.

Length 88 m; draft 5.6 m.

Type: Ship. MMSI: 305810000.

Date/timePositionNaut miles runAvg speedWind from/ knotsBaromVisibWave heightAir tempDewpointWater temp
2017-May-26 11:00N 51°53' E 004°16'0 0.0
2017-May-26 10:30N 51°53' E 004°16'0 0.0
2017-May-26 10:00N 51°53' E 004°16'0 0.0
2017-May-26 09:30N 51°53' E 004°16'0 0.0
2017-May-26 08:30N 51°53' E 004°16'0 0.0
2017-May-26 07:57N 51°53' E 004°16'0 0.1
2017-May-26 07:31N 51°53' E 004°16'1 1.3
2017-May-26 07:01N 51°53' E 004°17'2 4.7
2017-May-26 06:31N 51°55' E 004°15'3 5.9
2017-May-26 06:01N 51°57' E 004°11'3 6.2
2017-May-26 05:31N 51°59' E 004°07'4 7.6
2017-May-26 05:01N 51°60' E 004°01'4 8.8
2017-May-26 04:31N 52°00' E 003°54'5 9.2
2017-May-26 04:01N 51°60' E 003°47'4 8.9
2017-May-26 03:30N 51°58' E 003°40'4 7.4
2017-May-26 03:00N 51°57' E 003°34'4 7.1
2017-May-26 02:30N 51°56' E 003°29'4 7.2
2017-May-26 02:00N 51°55' E 003°23'4 7.3
2017-May-26 01:30N 51°54' E 003°18'20 7.5
2017-May-25 22:53N 51°48' E 002°47'3 6.5
2017-May-25 22:29N 51°47' E 002°43'7 4.9
2017-May-25 21:07N 51°43' E 002°35'4 3.2
2017-May-25 19:53N 51°40' E 002°30'1 3.0
2017-May-25 19:31N 51°39' E 002°29'2 3.1
2017-May-25 19:01N 51°38' E 002°27'2 3.3
2017-May-25 18:31N 51°37' E 002°25'2 3.5
2017-May-25 18:01N 51°36' E 002°23'2 4.2
2017-May-25 17:31N 51°34' E 002°21'2 4.7
2017-May-25 17:01N 51°32' E 002°19'3 5.1
2017-May-25 16:31N 51°30' E 002°16'3 5.3
2017-May-25 16:00N 51°28' E 002°14'3 5.7
2017-May-25 15:30N 51°25' E 002°12'3 6.0
2017-May-25 15:01N 51°22' E 002°11'7 6.9
2017-May-25 14:00N 51°16' E 002°06'4 7.7
2017-May-25 13:30N 51°13' E 002°02'4 8.3
2017-May-25 13:01N 51°11' E 001°56'4 8.7
2017-May-25 12:30N 51°09' E 001°50'5 9.2
2017-May-25 12:00N 51°07' E 001°44'610.8
2017-May-25 11:27N 51°03' E 001°37'612.4
2017-May-25 11:00N 50°59' E 001°30'611.7
2017-May-25 10:30N 50°54' E 001°25'4 8.7
2017-May-25 10:00N 50°50' E 001°23'4 8.1
2017-May-25 09:30N 50°46' E 001°21'5 9.1
2017-May-25 09:00N 50°42' E 001°18'4 7.8
2017-May-25 08:30N 50°39' E 001°13'5 7.8
2017-May-25 07:49N 50°36' E 001°07'14 8.3
2017-May-25 06:08N 50°30' E 000°47'1 9.3
2017-May-25 06:00N 50°30' E 000°45'10 7.0
2017-May-25 04:38N 50°27' E 000°31'1 6.6
2017-May-25 04:28N 50°27' E 000°29'4 6.4
2017-May-25 03:54N 50°25' E 000°24'3 6.2
2017-May-25 03:30N 50°25' E 000°20'3 6.1
2017-May-25 03:00N 50°24' E 000°16'3 5.9
2017-May-25 02:27N 50°23' E 000°11'3 5.9
2017-May-25 01:56N 50°22' E 000°06'3 5.9
2017-May-25 01:31N 50°21' E 000°02'3 6.0
2017-May-25 01:00N 50°21' W 000°02'3 6.1
2017-May-25 00:31N 50°20' W 000°07'3 6.2
2017-May-25 00:01N 50°19' W 000°11'3 6.3
2017-May-24 23:30N 50°18' W 000°16'3 6.5
2017-May-24 23:00N 50°17' W 000°21'4 7.0
2017-May-24 22:29N 50°16' W 000°26'4 7.6
2017-May-24 22:00N 50°15' W 000°32'4 8.7
2017-May-24 21:30N 50°14' W 000°38'5 9.7
2017-May-24 21:00N 50°12' W 000°46'510.5
2017-May-24 20:29N 50°11' W 000°54'611.1
2017-May-24 20:00N 50°10' W 001°02'711.6
2017-May-24 19:24N 50°08' W 001°12'511.7
2017-May-24 19:00N 50°06' W 001°19'611.9
2017-May-24 18:31N 50°04' W 001°28'611.8
2017-May-24 18:00N 50°02' W 001°37'611.6
2017-May-24 17:30N 50°01' W 001°46'611.2
2017-May-24 17:00N 49°59' W 001°54'510.4
2017-May-24 16:30N 49°58' W 002°01'5 9.7
2017-May-24 16:00N 49°56' W 002°09'5 8.6
2017-May-24 15:26N 49°55' W 002°16'3 7.7
2017-May-24 14:59N 49°53' W 002°21'9 6.7
2017-May-24 13:37N 49°51' W 002°34'9 5.7
2017-May-24 12:05N 49°49' W 002°48'61 7.8
2017-May-24 04:14N 49°18' W 004°09'2 9.6
2017-May-24 04:00N 49°17' W 004°12'5 9.7
2017-May-24 03:30N 49°14' W 004°18'7 9.8
2017-May-24 02:49N 49°11' W 004°27'25 9.4
2017-May-24 00:08N 48°59' W 005°01'2 8.5
2017-May-23 23:55N 48°58' W 005°03'4 8.5
2017-May-23 23:29N 48°56' W 005°08'9 8.0
2017-May-23 22:24N 48°52' W 005°20'4 7.5
2017-May-23 21:55N 48°50' W 005°25'3 7.1
2017-May-23 21:30N 48°48' W 005°28'5 6.9
2017-May-23 20:43N 48°45' W 005°35'2 6.6
2017-May-23 20:21N 48°43' W 005°37'4 6.5
2017-May-23 19:41N 48°39' W 005°40'109 7.8
2017-May-23 05:41N 46°54' W 006°22'2 8.5
2017-May-23 05:31N 46°52' W 006°23'6 8.5
2017-May-23 04:46N 46°46' W 006°25'2 8.5
2017-May-23 04:30N 46°44' W 006°26'4 8.5
2017-May-23 03:59N 46°40' W 006°27'5 8.3
2017-May-23 03:19N 46°34' W 006°29'3 8.1
2017-May-23 03:01N 46°32' W 006°30'4 8.2
2017-May-23 02:30N 46°28' W 006°31'4 8.3
2017-May-23 02:00N 46°24' W 006°32'37 8.3
2017-May-22 21:31N 45°48' W 006°45'2 8.6
2017-May-22 21:17N 45°46' W 006°46'  
Track history (hours):
 
Tides and Currents Weather Stations Pressure Air Temp Water Temp Dewpoint Dewpoint Depression Visibility Wind Speed Wind Dir Waves Ship Positions

Peleus

Last reported at 2017-May-26 11:00 UTC. Time now 2017-May-26 16:45 UTC.
Position N 51°53' E 004°16'.

Length 88 m; draft 5.6 m.

Type: Ship. MMSI: 305810000.

Date/timePositionNaut miles runAvg speedWind from/ knotsBaromVisibWave heightAir tempDewpointWater temp
2017-May-26 11:00N 51°53' E 004°16'0 0.0
2017-May-26 10:30N 51°53' E 004°16'0 0.0
2017-May-26 10:00N 51°53' E 004°16'0 0.0
2017-May-26 09:30N 51°53' E 004°16'0 0.0
2017-May-26 08:30N 51°53' E 004°16'0 0.0
2017-May-26 07:57N 51°53' E 004°16'0 0.1
2017-May-26 07:31N 51°53' E 004°16'1 1.3
2017-May-26 07:01N 51°53' E 004°17'2 4.7
2017-May-26 06:31N 51°55' E 004°15'3 5.9
2017-May-26 06:01N 51°57' E 004°11'3 6.2
2017-May-26 05:31N 51°59' E 004°07'4 7.6
2017-May-26 05:01N 51°60' E 004°01'4 8.8
2017-May-26 04:31N 52°00' E 003°54'5 9.2
2017-May-26 04:01N 51°60' E 003°47'4 8.9
2017-May-26 03:30N 51°58' E 003°40'4 7.4
2017-May-26 03:00N 51°57' E 003°34'4 7.1
2017-May-26 02:30N 51°56' E 003°29'4 7.2
2017-May-26 02:00N 51°55' E 003°23'4 7.3
2017-May-26 01:30N 51°54' E 003°18'20 7.5
2017-May-25 22:53N 51°48' E 002°47'3 6.5
2017-May-25 22:29N 51°47' E 002°43'7 4.9
2017-May-25 21:07N 51°43' E 002°35'4 3.2
2017-May-25 19:53N 51°40' E 002°30'1 3.0
2017-May-25 19:31N 51°39' E 002°29'2 3.1
2017-May-25 19:01N 51°38' E 002°27'2 3.3
2017-May-25 18:31N 51°37' E 002°25'2 3.5
2017-May-25 18:01N 51°36' E 002°23'2 4.2
2017-May-25 17:31N 51°34' E 002°21'2 4.7
2017-May-25 17:01N 51°32' E 002°19'3 5.1
2017-May-25 16:31N 51°30' E 002°16'3 5.3
2017-May-25 16:00N 51°28' E 002°14'3 5.7
2017-May-25 15:30N 51°25' E 002°12'3 6.0
2017-May-25 15:01N 51°22' E 002°11'7 6.9
2017-May-25 14:00N 51°16' E 002°06'4 7.7
2017-May-25 13:30N 51°13' E 002°02'4 8.3
2017-May-25 13:01N 51°11' E 001°56'4 8.7
2017-May-25 12:30N 51°09' E 001°50'5 9.2
2017-May-25 12:00N 51°07' E 001°44'610.8
2017-May-25 11:27N 51°03' E 001°37'612.4
2017-May-25 11:00N 50°59' E 001°30'611.7
2017-May-25 10:30N 50°54' E 001°25'4 8.7
2017-May-25 10:00N 50°50' E 001°23'4 8.1
2017-May-25 09:30N 50°46' E 001°21'5 9.1
2017-May-25 09:00N 50°42' E 001°18'4 7.8
2017-May-25 08:30N 50°39' E 001°13'5 7.8
2017-May-25 07:49N 50°36' E 001°07'14 8.3
2017-May-25 06:08N 50°30' E 000°47'1 9.3
2017-May-25 06:00N 50°30' E 000°45'10 7.0
2017-May-25 04:38N 50°27' E 000°31'1 6.6
2017-May-25 04:28N 50°27' E 000°29'4 6.4
2017-May-25 03:54N 50°25' E 000°24'3 6.2
2017-May-25 03:30N 50°25' E 000°20'3 6.1
2017-May-25 03:00N 50°24' E 000°16'3 5.9
2017-May-25 02:27N 50°23' E 000°11'3 5.9
2017-May-25 01:56N 50°22' E 000°06'3 5.9
2017-May-25 01:31N 50°21' E 000°02'3 6.0
2017-May-25 01:00N 50°21' W 000°02'3 6.1
2017-May-25 00:31N 50°20' W 000°07'3 6.2
2017-May-25 00:01N 50°19' W 000°11'3 6.3
2017-May-24 23:30N 50°18' W 000°16'3 6.5
2017-May-24 23:00N 50°17' W 000°21'4 7.0
2017-May-24 22:29N 50°16' W 000°26'4 7.6
2017-May-24 22:00N 50°15' W 000°32'4 8.7
2017-May-24 21:30N 50°14' W 000°38'5 9.7
2017-May-24 21:00N 50°12' W 000°46'510.5
2017-May-24 20:29N 50°11' W 000°54'611.1
2017-May-24 20:00N 50°10' W 001°02'711.6
2017-May-24 19:24N 50°08' W 001°12'511.7
2017-May-24 19:00N 50°06' W 001°19'611.9
2017-May-24 18:31N 50°04' W 001°28'611.8
2017-May-24 18:00N 50°02' W 001°37'611.6
2017-May-24 17:30N 50°01' W 001°46'611.2
2017-May-24 17:00N 49°59' W 001°54'510.4
2017-May-24 16:30N 49°58' W 002°01'5 9.7
2017-May-24 16:00N 49°56' W 002°09'5 8.6
2017-May-24 15:26N 49°55' W 002°16'3 7.7
2017-May-24 14:59N 49°53' W 002°21'9 6.7
2017-May-24 13:37N 49°51' W 002°34'9 5.7
2017-May-24 12:05N 49°49' W 002°48'61 7.8
2017-May-24 04:14N 49°18' W 004°09'2 9.6
2017-May-24 04:00N 49°17' W 004°12'5 9.7
2017-May-24 03:30N 49°14' W 004°18'7 9.8
2017-May-24 02:49N 49°11' W 004°27'25 9.4
2017-May-24 00:08N 48°59' W 005°01'2 8.5
2017-May-23 23:55N 48°58' W 005°03'4 8.5
2017-May-23 23:29N 48°56' W 005°08'9 8.0
2017-May-23 22:24N 48°52' W 005°20'4 7.5
2017-May-23 21:55N 48°50' W 005°25'3 7.1
2017-May-23 21:30N 48°48' W 005°28'5 6.9
2017-May-23 20:43N 48°45' W 005°35'2 6.6
2017-May-23 20:21N 48°43' W 005°37'4 6.5
2017-May-23 19:41N 48°39' W 005°40'109 7.8
2017-May-23 05:41N 46°54' W 006°22'2 8.5
2017-May-23 05:31N 46°52' W 006°23'6 8.5
2017-May-23 04:46N 46°46' W 006°25'2 8.5
2017-May-23 04:30N 46°44' W 006°26'4 8.5
2017-May-23 03:59N 46°40' W 006°27'5 8.3
2017-May-23 03:19N 46°34' W 006°29'3 8.1
2017-May-23 03:01N 46°32' W 006°30'4 8.2
2017-May-23 02:30N 46°28' W 006°31'4 8.3
2017-May-23 02:00N 46°24' W 006°32'37 8.3
2017-May-22 21:31N 45°48' W 006°45'2 8.6
2017-May-22 21:17N 45°46' W 006°46'  

Dump ship's entire track history